Time;durP1;ratioP1;P1;durP2;ratioP2;P2;SDS_P1;SDS_P2;PMS_P1;PMS_P2;Temp;Humidity;BMP_temperature;BMP_pressure;BME280_temperature;BME280_humidity;BME280_pressure;Samples;Min_cycle;Max_cycle;Signal;HPM_P1;HPM_P2
2023/09/17 00:00:24;;;;;;;0.90;0.90;;;16.60;99.90;;;;;;4953048;28;20044;-63
2023/09/17 00:02:49;;;;;;;0.93;0.43;;;16.60;99.90;;;;;;4953001;29;20071;-63
2023/09/17 00:05:16;;;;;;;0.75;0.75;;;16.60;99.90;;;;;;4952410;29;20051;-63
2023/09/17 00:07:42;;;;;;;0.28;0.28;;;16.60;99.90;;;;;;4949980;29;20107;-63
2023/09/17 00:10:09;;;;;;;0.90;0.90;;;16.60;99.90;;;;;;4950367;28;20059;-63
2023/09/17 00:12:34;;;;;;;0.65;0.52;;;16.60;99.90;;;;;;4952660;28;20141;-63
2023/09/17 00:15:00;;;;;;;2.53;0.93;;;16.50;99.90;;;;;;4951591;29;20547;-64
2023/09/17 00:17:26;;;;;;;1.50;1.25;;;16.60;99.90;;;;;;4953157;28;20057;-63
2023/09/17 00:19:51;;;;;;;1.27;1.17;;;16.60;99.90;;;;;;4956957;29;20463;-63
2023/09/17 00:22:17;;;;;;;1.75;0.65;;;16.60;99.90;;;;;;4954321;29;20143;-63
2023/09/17 00:24:43;;;;;;;0.88;0.75;;;16.60;99.90;;;;;;4953944;29;20043;-63
2023/09/17 00:27:09;;;;;;;0.63;0.63;;;16.60;99.90;;;;;;4956132;29;20043;-63
2023/09/17 00:29:34;;;;;;;0.43;0.25;;;16.70;99.90;;;;;;4956442;29;20090;-63
2023/09/17 00:32:00;;;;;;;0.43;0.43;;;16.60;99.90;;;;;;4953774;29;20505;-63
2023/09/17 00:34:25;;;;;;;0.10;0.10;;;16.70;99.90;;;;;;4956034;29;20101;-63
2023/09/17 00:36:51;;;;;;;0.88;0.75;;;16.60;99.90;;;;;;4956272;29;20040;-63
2023/09/17 00:39:17;;;;;;;0.22;0.22;;;16.70;99.90;;;;;;4953662;29;20043;-63
2023/09/17 00:41:43;;;;;;;0.05;0.05;;;16.70;99.90;;;;;;4953877;29;20058;-63
2023/09/17 00:44:09;;;;;;;0.32;0.32;;;16.70;99.90;;;;;;4954128;28;20051;-63
2023/09/17 00:46:35;;;;;;;0.63;0.63;;;16.70;99.90;;;;;;4952075;29;20411;-63
2023/09/17 00:49:02;;;;;;;0.20;0.20;;;16.70;99.90;;;;;;4956083;29;20055;-63
2023/09/17 00:51:27;;;;;;;0.15;0.15;;;16.60;99.90;;;;;;4954346;29;20062;-63
2023/09/17 00:53:56;;;;;;;0.32;0.32;;;16.60;99.90;;;;;;4954776;29;20047;-64
2023/09/17 00:56:23;;;;;;;0.30;0.30;;;16.60;99.90;;;;;;4955641;29;20494;-63
2023/09/17 00:58:50;;;;;;;0.63;0.63;;;16.60;99.90;;;;;;4955664;29;20126;-63
2023/09/17 01:01:16;;;;;;;0.30;0.30;;;16.60;99.90;;;;;;4953066;29;20039;-63
2023/09/17 01:03:42;;;;;;;0.85;0.85;;;16.60;99.90;;;;;;4955351;28;20498;-63
2023/09/17 01:06:11;;;;;;;1.40;1.27;;;16.60;99.90;;;;;;4955941;28;20075;-63
2023/09/17 01:08:39;;;;;;;1.60;0.20;;;16.60;99.90;;;;;;4953263;28;20047;-63
2023/09/17 01:11:07;;;;;;;0.32;0.32;;;16.70;99.90;;;;;;4955446;28;20051;-63
2023/09/17 01:13:34;;;;;;;0.20;0.20;;;16.60;99.90;;;;;;4952725;28;20047;-63
2023/09/17 01:15:59;;;;;;;0.47;0.45;;;16.70;99.90;;;;;;4953550;28;20423;-63
2023/09/17 01:18:27;;;;;;;3.58;0.38;;;16.70;99.90;;;;;;4955374;29;20051;-64
2023/09/17 01:21:04;;;;;;;0.80;0.68;;;16.70;99.90;;;;;;4954841;29;20046;-63
2023/09/17 01:23:40;;;;;;;1.08;0.90;;;16.80;99.90;;;;;;4941437;29;20043;-63
2023/09/17 01:26:26;;;;;;;1.33;1.13;;;16.70;99.90;;;;;;4952690;29;20103;-63
2023/09/17 01:28:56;;;;;;;0.55;0.52;;;16.70;99.90;;;;;;4952246;28;20039;-64
2023/09/17 01:31:23;;;;;;;0.47;0.30;;;16.70;99.90;;;;;;4954808;28;20503;-64
2023/09/17 01:33:49;;;;;;;0.35;0.35;;;16.80;99.90;;;;;;4953990;29;20554;-64
2023/09/17 01:36:33;;;;;;;1.45;0.75;;;16.80;99.90;;;;;;4954630;28;20052;-63
2023/09/17 01:39:15;;;;;;;0.13;0.13;;;16.80;99.90;;;;;;4945793;29;20047;-64
2023/09/17 01:41:42;;;;;;;0.10;0.10;;;16.80;99.90;;;;;;4954164;28;20130;-63
2023/09/17 01:44:10;;;;;;;10.00;1.23;;;16.80;99.90;;;;;;4954872;28;20031;-63
2023/09/17 01:46:37;;;;;;;0.77;0.77;;;16.90;99.90;;;;;;4954506;28;20139;-63
2023/09/17 01:49:05;;;;;;;0.00;0.00;;;16.90;99.90;;;;;;4971407;28;20138;-64
2023/09/17 01:51:31;;;;;;;0.00;0.00;;;16.90;99.90;;;;;;4972119;28;20077;-63
2023/09/17 01:53:57;;;;;;;0.13;0.13;;;16.90;99.90;;;;;;4973888;28;20057;-63
2023/09/17 01:56:23;;;;;;;5.47;1.55;;;17.00;99.90;;;;;;4973443;28;20093;-63
2023/09/17 01:58:49;;;;;;;0.50;0.50;;;16.90;99.90;;;;;;4973757;28;20054;-63
2023/09/17 02:01:15;;;;;;;0.43;0.32;;;16.90;99.90;;;;;;4970731;28;20113;-63
2023/09/17 02:03:40;;;;;;;0.13;0.13;;;17.00;99.90;;;;;;4971088;28;20050;-63
2023/09/17 02:06:06;;;;;;;0.10;0.10;;;17.00;99.90;;;;;;4973385;28;20049;-64
2023/09/17 02:08:31;;;;;;;0.35;0.35;;;17.00;99.90;;;;;;4973922;28;20050;-63
2023/09/17 02:10:57;;;;;;;0.10;0.10;;;17.00;99.90;;;;;;4973093;28;20510;-64
2023/09/17 02:13:22;;;;;;;0.47;0.47;;;17.10;99.90;;;;;;4971636;28;20091;-64
2023/09/17 02:15:49;;;;;;;0.22;0.22;;;17.10;99.90;;;;;;4973814;28;20039;-63
2023/09/17 02:18:15;;;;;;;0.20;0.20;;;17.00;99.90;;;;;;4972653;28;20093;-64
2023/09/17 02:20:40;;;;;;;0.40;0.40;;;17.00;99.90;;;;;;4972069;28;20043;-63
2023/09/17 02:23:06;;;;;;;0.00;0.00;;;17.00;99.90;;;;;;4969085;28;20035;-63
2023/09/17 02:25:32;;;;;;;0.32;0.20;;;17.10;99.90;;;;;;4972940;28;20046;-63
2023/09/17 02:27:58;;;;;;;0.30;0.30;;;17.00;99.90;;;;;;4956213;28;20045;-64
2023/09/17 02:30:24;;;;;;;0.52;0.52;;;17.10;99.90;;;;;;4954236;28;20047;-63
2023/09/17 02:32:50;;;;;;;0.10;0.10;;;17.00;99.90;;;;;;4972889;28;20510;-64
2023/09/17 02:35:15;;;;;;;0.10;0.10;;;17.00;99.90;;;;;;4973404;28;20045;-63
2023/09/17 02:37:41;;;;;;;3.00;0.85;;;17.00;99.90;;;;;;4973438;28;20049;-63
2023/09/17 02:40:09;;;;;;;0.35;0.35;;;17.00;99.90;;;;;;4970518;28;20050;-63
2023/09/17 02:42:36;;;;;;;0.10;0.10;;;17.10;99.90;;;;;;4970443;28;20462;-63
2023/09/17 02:45:03;;;;;;;0.57;0.57;;;17.00;99.90;;;;;;4970551;28;20502;-63
2023/09/17 02:47:28;;;;;;;0.80;0.60;;;17.00;99.90;;;;;;4972611;28;20057;-63
2023/09/17 02:49:54;;;;;;;1.35;0.95;;;17.10;99.90;;;;;;4971228;28;20058;-63
2023/09/17 02:52:19;;;;;;;0.03;0.03;;;17.10;99.90;;;;;;4972232;28;20046;-63
2023/09/17 02:54:46;;;;;;;3.00;0.90;;;17.10;99.90;;;;;;4970792;28;20061;-63
2023/09/17 02:57:11;;;;;;;1.25;1.05;;;17.10;99.90;;;;;;4973158;28;20102;-63
2023/09/17 02:59:37;;;;;;;0.63;0.63;;;17.10;99.90;;;;;;4972306;28;20046;-63
2023/09/17 03:02:03;;;;;;;0.38;0.38;;;17.10;99.90;;;;;;4971342;28;20058;-63
2023/09/17 03:04:29;;;;;;;0.05;0.05;;;17.10;99.90;;;;;;4972815;28;20047;-63
2023/09/17 03:06:55;;;;;;;2.40;0.55;;;17.20;99.90;;;;;;4972418;28;20409;-64
2023/09/17 03:09:20;;;;;;;0.75;0.50;;;17.20;99.90;;;;;;4972834;28;20046;-64
2023/09/17 03:11:46;;;;;;;0.15;0.15;;;17.20;99.90;;;;;;4970982;28;20089;-63
2023/09/17 03:14:12;;;;;;;0.30;0.30;;;17.20;99.90;;;;;;4971960;28;20039;-64
2023/09/17 03:16:37;;;;;;;0.10;0.10;;;17.20;99.90;;;;;;4972959;28;20035;-64
2023/09/17 03:19:03;;;;;;;0.30;0.30;;;17.30;99.90;;;;;;4971451;28;20478;-64
2023/09/17 03:21:29;;;;;;;0.25;0.25;;;17.30;99.90;;;;;;4971858;28;20046;-63
2023/09/17 03:23:54;;;;;;;0.15;0.10;;;17.40;99.90;;;;;;4970973;28;20046;-63
2023/09/17 03:26:22;;;;;;;1.77;0.93;;;17.40;99.90;;;;;;4972738;28;20118;-63
2023/09/17 03:28:47;;;;;;;1.00;0.95;;;17.40;99.90;;;;;;4972069;28;20047;-64
2023/09/17 03:31:13;;;;;;;0.43;0.32;;;17.40;99.90;;;;;;4955184;28;20050;-63
2023/09/17 03:33:38;;;;;;;0.00;0.00;;;17.30;99.90;;;;;;4970442;28;20091;-63
2023/09/17 03:36:04;;;;;;;0.10;0.10;;;17.40;99.90;;;;;;4954677;28;20467;-63
2023/09/17 03:38:30;;;;;;;0.25;0.25;;;17.40;99.90;;;;;;4972440;28;20094;-64
2023/09/17 03:40:59;;;;;;;0.22;0.22;;;17.40;99.90;;;;;;4971681;28;20098;-63
2023/09/17 03:43:27;;;;;;;0.08;0.08;;;17.40;99.90;;;;;;4970991;28;20082;-64
2023/09/17 03:45:53;;;;;;;0.22;0.22;;;17.40;99.90;;;;;;4972380;28;20031;-63
2023/09/17 03:48:20;;;;;;;0.17;0.17;;;17.40;99.90;;;;;;4971626;28;20555;-64
2023/09/17 03:50:46;;;;;;;0.73;0.40;;;17.40;99.90;;;;;;4970494;28;20430;-64
2023/09/17 03:53:13;;;;;;;0.10;0.10;;;17.40;99.90;;;;;;4974262;28;20042;-63
2023/09/17 03:55:39;;;;;;;0.57;0.57;;;17.40;99.90;;;;;;4975612;28;20122;-63
2023/09/17 03:58:05;;;;;;;0.10;0.10;;;17.40;99.90;;;;;;4974401;28;20057;-64
2023/09/17 04:00:31;;;;;;;0.47;0.47;;;17.40;99.90;;;;;;4975813;28;20494;-63
2023/09/17 04:02:57;;;;;;;0.52;0.52;;;17.40;99.90;;;;;;4975264;28;20110;-63
2023/09/17 04:05:24;;;;;;;0.45;0.45;;;17.40;99.90;;;;;;4974475;28;20051;-64
2023/09/17 04:07:49;;;;;;;0.10;0.10;;;17.40;99.90;;;;;;4975687;28;20150;-64
2023/09/17 04:10:17;;;;;;;0.60;0.32;;;17.50;99.90;;;;;;4975379;28;20133;-64
2023/09/17 04:12:43;;;;;;;0.22;0.22;;;17.50;99.90;;;;;;4975776;28;20042;-64
2023/09/17 04:15:16;;;;;;;0.75;0.63;;;17.40;99.90;;;;;;4956398;28;20071;-64
2023/09/17 04:17:43;;;;;;;0.10;0.10;;;17.50;99.90;;;;;;4975150;28;20401;-63
2023/09/17 04:20:11;;;;;;;0.10;0.10;;;17.40;99.90;;;;;;4975654;28;20044;-63
2023/09/17 04:22:37;;;;;;;0.55;0.52;;;17.50;99.90;;;;;;4973745;28;20054;-63
2023/09/17 04:25:04;;;;;;;0.20;0.20;;;17.40;99.90;;;;;;4974709;28;20082;-63
2023/09/17 04:27:31;;;;;;;0.28;0.20;;;17.40;99.90;;;;;;4975789;28;20102;-64
2023/09/17 04:29:56;;;;;;;0.35;0.35;;;17.40;99.90;;;;;;4975502;28;20039;-63
2023/09/17 04:32:22;;;;;;;0.20;0.15;;;17.50;99.90;;;;;;4972713;28;20520;-63
2023/09/17 04:34:47;;;;;;;1.13;0.70;;;17.50;99.90;;;;;;4975669;28;20042;-64
2023/09/17 04:37:14;;;;;;;0.15;0.10;;;17.50;99.90;;;;;;4973784;28;20094;-64
2023/09/17 04:39:41;;;;;;;0.47;0.47;;;17.50;99.90;;;;;;4974606;28;20121;-63
2023/09/17 04:42:07;;;;;;;0.20;0.20;;;17.40;99.90;;;;;;4975619;28;20061;-63
2023/09/17 04:44:33;;;;;;;0.20;0.10;;;17.50;99.90;;;;;;4972712;28;20470;-64
2023/09/17 04:46:58;;;;;;;1.00;1.00;;;17.40;99.90;;;;;;4975199;28;20061;-63
2023/09/17 04:49:24;;;;;;;0.98;0.93;;;17.40;99.90;;;;;;4973413;28;20094;-64
2023/09/17 04:51:50;;;;;;;0.05;0.05;;;17.40;99.90;;;;;;4974164;28;20058;-63
2023/09/17 04:54:15;;;;;;;0.30;0.30;;;17.40;99.90;;;;;;4975132;28;20564;-63
2023/09/17 04:56:41;;;;;;;0.00;0.00;;;17.50;99.90;;;;;;4975176;28;20079;-63
2023/09/17 04:59:06;;;;;;;0.10;0.10;;;17.50;99.90;;;;;;4972739;28;20394;-63
2023/09/17 05:01:33;;;;;;;0.43;0.43;;;17.50;99.90;;;;;;4974707;28;20050;-63
2023/09/17 05:03:59;;;;;;;4.00;2.20;;;17.50;99.90;;;;;;4974202;28;20043;-63
2023/09/17 05:06:24;;;;;;;0.55;0.55;;;17.50;99.90;;;;;;4974143;28;20051;-64
2023/09/17 05:08:50;;;;;;;0.20;0.20;;;17.50;99.90;;;;;;4973222;28;20053;-63
2023/09/17 05:11:16;;;;;;;0.88;0.60;;;17.50;99.90;;;;;;4974690;28;20050;-64
2023/09/17 05:13:41;;;;;;;0.25;0.25;;;17.50;99.90;;;;;;4956780;28;20406;-63
2023/09/17 05:16:07;;;;;;;0.70;0.47;;;17.50;99.90;;;;;;4972902;28;20038;-63
2023/09/17 05:18:32;;;;;;;0.75;0.70;;;17.50;99.90;;;;;;4974630;28;20042;-63
2023/09/17 05:20:58;;;;;;;0.75;0.75;;;17.50;99.90;;;;;;4972120;28;20398;-63
2023/09/17 05:23:23;;;;;;;0.20;0.20;;;17.50;99.90;;;;;;4972702;28;20055;-63
2023/09/17 05:25:50;;;;;;;0.13;0.13;;;17.50;99.90;;;;;;4974429;28;20118;-64
2023/09/17 05:28:15;;;;;;;0.65;0.65;;;17.50;99.90;;;;;;4954252;28;20479;-64
2023/09/17 05:30:41;;;;;;;0.25;0.25;;;17.40;99.90;;;;;;4957231;28;20050;-64
2023/09/17 05:33:07;;;;;;;0.28;0.28;;;17.50;99.90;;;;;;4955082;28;20079;-64
2023/09/17 05:35:39;;;;;;;0.03;0.03;;;17.50;99.90;;;;;;4955804;28;20090;-63
2023/09/17 05:38:05;;;;;;;1.17;1.08;;;17.50;99.90;;;;;;4974639;28;20125;-63
2023/09/17 05:40:31;;;;;;;0.17;0.17;;;17.50;99.90;;;;;;4972491;28;20537;-63
2023/09/17 05:42:57;;;;;;;0.52;0.45;;;17.50;99.90;;;;;;4973132;28;20043;-64
2023/09/17 05:45:23;;;;;;;0.10;0.10;;;17.50;99.90;;;;;;4974142;28;20072;-63
2023/09/17 05:47:49;;;;;;;6.40;0.40;;;17.50;99.90;;;;;;4973133;28;20058;-63
2023/09/17 05:50:15;;;;;;;0.32;0.32;;;17.50;99.90;;;;;;4972449;28;20093;-63
2023/09/17 05:52:40;;;;;;;0.13;0.13;;;17.50;99.90;;;;;;4973676;28;20047;-64
2023/09/17 05:55:06;;;;;;;0.17;0.17;;;17.50;99.90;;;;;;4971886;28;20374;-64
2023/09/17 05:57:32;;;;;;;0.30;0.30;;;17.50;99.90;;;;;;4973601;28;20050;-63
2023/09/17 05:59:59;;;;;;;0.15;0.15;;;17.50;99.90;;;;;;4974169;28;20042;-63
2023/09/17 06:02:25;;;;;;;0.35;0.35;;;17.50;99.90;;;;;;4970415;28;20490;-64
2023/09/17 06:04:53;;;;;;;0.28;0.28;;;17.50;99.90;;;;;;4971750;28;20499;-64
2023/09/17 06:07:22;;;;;;;0.10;0.10;;;17.60;99.90;;;;;;4973433;28;20403;-64
2023/09/17 06:09:47;;;;;;;0.60;0.57;;;17.50;99.90;;;;;;4971346;28;20062;-63
2023/09/17 06:12:15;;;;;;;0.50;0.50;;;17.60;99.90;;;;;;4972234;28;20573;-64
2023/09/17 06:14:41;;;;;;;2.00;0.80;;;17.60;99.90;;;;;;4973868;28;20061;-63
2023/09/17 06:17:06;;;;;;;0.28;0.28;;;17.60;99.90;;;;;;4970766;28;20039;-63
2023/09/17 06:19:33;;;;;;;0.20;0.20;;;17.60;99.90;;;;;;4973431;28;20054;-64
2023/09/17 06:21:59;;;;;;;0.65;0.65;;;17.70;99.90;;;;;;4971005;28;20046;-64
2023/09/17 06:24:25;;;;;;;0.10;0.10;;;17.70;99.90;;;;;;4972893;28;20042;-64
2023/09/17 06:26:50;;;;;;;0.10;0.10;;;17.70;99.90;;;;;;4971920;28;20057;-64
2023/09/17 06:29:16;;;;;;;2.00;0.63;;;17.70;99.90;;;;;;4973166;28;20047;-64
2023/09/17 06:31:42;;;;;;;0.32;0.32;;;17.80;99.90;;;;;;4972746;28;20112;-63
2023/09/17 06:34:09;;;;;;;0.40;0.40;;;17.80;99.90;;;;;;4971268;28;20038;-63
2023/09/17 06:36:35;;;;;;;0.03;0.03;;;17.80;99.90;;;;;;4973277;28;20054;-64
2023/09/17 06:39:03;;;;;;;1.08;0.30;;;17.90;99.90;;;;;;4972520;28;20077;-64
2023/09/17 06:41:28;;;;;;;0.35;0.22;;;17.90;99.90;;;;;;4971105;28;20094;-63
2023/09/17 06:43:54;;;;;;;0.85;0.63;;;17.90;99.90;;;;;;4972931;28;20050;-64
2023/09/17 06:46:23;;;;;;;0.70;0.45;;;17.90;99.90;;;;;;4955350;28;20475;-63
2023/09/17 06:48:49;;;;;;;0.55;0.45;;;17.90;99.90;;;;;;4972978;28;20106;-63
2023/09/17 06:51:15;;;;;;;0.05;0.05;;;17.90;99.90;;;;;;4953452;28;20106;-64
2023/09/17 06:53:41;;;;;;;0.00;0.00;;;17.90;99.90;;;;;;4973228;28;20058;-64
2023/09/17 06:56:08;;;;;;;0.60;0.60;;;17.90;99.90;;;;;;4971431;28;20402;-64
2023/09/17 06:58:34;;;;;;;0.20;0.20;;;18.00;99.90;;;;;;4954511;28;20055;-64
2023/09/17 07:01:00;;;;;;;0.65;0.52;;;18.00;99.90;;;;;;4955759;28;20046;-64
2023/09/17 07:03:26;;;;;;;0.35;0.35;;;18.00;99.90;;;;;;4972933;28;20051;-63
2023/09/17 07:05:51;;;;;;;0.40;0.40;;;17.90;99.90;;;;;;4970080;28;20054;-64
2023/09/17 07:08:17;;;;;;;0.10;0.10;;;18.00;99.90;;;;;;4972987;28;20478;-64
2023/09/17 07:10:46;;;;;;;1.35;0.85;;;17.90;99.90;;;;;;4973203;28;20046;-64
2023/09/17 07:13:12;;;;;;;0.25;0.25;;;18.00;99.90;;;;;;4970245;28;20059;-64
2023/09/17 07:15:38;;;;;;;0.13;0.13;;;18.00;99.90;;;;;;4972823;28;20090;-63
2023/09/17 07:18:04;;;;;;;0.10;0.10;;;18.00;99.90;;;;;;4971062;28;20046;-64
2023/09/17 07:20:30;;;;;;;0.30;0.30;;;18.00;99.90;;;;;;4970306;28;20914;-63
2023/09/17 07:22:55;;;;;;;0.08;0.08;;;18.10;99.90;;;;;;4972647;28;20047;-63
2023/09/17 07:25:22;;;;;;;0.00;0.00;;;18.00;99.90;;;;;;4953635;28;20070;-64
2023/09/17 07:27:47;;;;;;;0.20;0.10;;;18.00;99.90;;;;;;4973613;28;20389;-63
2023/09/17 07:30:14;;;;;;;0.68;0.68;;;18.00;99.90;;;;;;4976869;28;20043;-63
2023/09/17 07:32:40;;;;;;;0.75;0.47;;;18.00;99.90;;;;;;4957375;28;20051;-63
2023/09/17 07:35:08;;;;;;;0.30;0.30;;;18.00;99.90;;;;;;4975399;28;20042;-63
2023/09/17 07:37:33;;;;;;;0.50;0.50;;;18.00;99.90;;;;;;4976625;28;20109;-63
2023/09/17 07:40:04;;;;;;;0.10;0.10;;;18.00;99.90;;;;;;4974962;28;20046;-63
2023/09/17 07:42:30;;;;;;;0.32;0.32;;;18.00;99.90;;;;;;4975557;28;20049;-63
2023/09/17 07:44:56;;;;;;;0.00;0.00;;;18.00;99.90;;;;;;4975332;28;20453;-64
2023/09/17 07:47:21;;;;;;;0.28;0.17;;;18.00;99.90;;;;;;4974933;28;20090;-63
2023/09/17 07:49:47;;;;;;;0.10;0.10;;;18.00;99.90;;;;;;4974136;28;20062;-64
2023/09/17 07:52:13;;;;;;;0.00;0.00;;;18.00;99.90;;;;;;4976288;28;20781;-64
2023/09/17 07:54:40;;;;;;;1.33;0.55;;;18.00;99.90;;;;;;4975377;28;20054;-64
2023/09/17 07:57:07;;;;;;;0.85;0.75;;;18.00;99.90;;;;;;4974563;28;20045;-63
2023/09/17 07:59:32;;;;;;;1.15;0.68;;;18.00;99.90;;;;;;4976148;28;20486;-64
2023/09/17 08:01:59;;;;;;;0.85;0.57;;;18.00;99.90;;;;;;4975308;28;20102;-63
2023/09/17 08:04:25;;;;;;;0.20;0.20;;;18.00;99.90;;;;;;4974261;28;20536;-63
2023/09/17 08:06:51;;;;;;;2.22;2.05;;;18.00;99.90;;;;;;4975797;28;20039;-64
2023/09/17 08:09:17;;;;;;;0.30;0.30;;;18.00;99.90;;;;;;4975574;28;20039;-63
2023/09/17 08:11:43;;;;;;;0.43;0.20;;;18.00;99.90;;;;;;4976186;28;20054;-63
2023/09/17 08:14:14;;;;;;;0.40;0.40;;;18.10;99.90;;;;;;4956457;28;20043;-63
2023/09/17 08:16:40;;;;;;;0.65;0.57;;;18.10;99.90;;;;;;4973457;28;20483;-64
2023/09/17 08:19:06;;;;;;;0.00;0.00;;;18.10;99.90;;;;;;4975477;28;20039;-63
2023/09/17 08:21:32;;;;;;;0.00;0.00;;;18.10;99.90;;;;;;4975665;28;20088;-63
2023/09/17 08:23:58;;;;;;;0.17;0.17;;;18.10;99.90;;;;;;4973417;28;20038;-63
2023/09/17 08:26:27;;;;;;;0.68;0.68;;;18.00;99.90;;;;;;4975623;28;20049;-64
2023/09/17 08:28:55;;;;;;;1.30;0.50;;;18.10;99.90;;;;;;4973954;28;20058;-64
2023/09/17 08:31:22;;;;;;;0.43;0.43;;;18.10;99.90;;;;;;4974934;28;20381;-63
2023/09/17 08:33:48;;;;;;;0.32;0.32;;;18.10;99.90;;;;;;4975667;28;20042;-63
2023/09/17 08:36:14;;;;;;;1.35;0.98;;;18.10;99.90;;;;;;4973654;28;20046;-64
2023/09/17 08:38:40;;;;;;;0.13;0.13;;;18.20;99.90;;;;;;4974704;28;20042;-63
2023/09/17 08:41:07;;;;;;;0.50;0.50;;;18.20;99.90;;;;;;4974508;28;20054;-64
2023/09/17 08:43:33;;;;;;;0.28;0.13;;;18.10;99.90;;;;;;4972731;28;20557;-63
2023/09/17 08:46:03;;;;;;;0.00;0.00;;;18.10;99.90;;;;;;4975859;28;20090;-64
2023/09/17 08:48:29;;;;;;;0.28;0.28;;;18.10;99.90;;;;;;4975694;28;20043;-64
2023/09/17 08:50:57;;;;;;;0.17;0.15;;;18.10;99.90;;;;;;4973045;28;20105;-64
2023/09/17 08:53:30;;;;;;;0.00;0.00;;;18.10;99.90;;;;;;4975263;28;20043;-64
2023/09/17 08:55:57;;;;;;;0.00;0.00;;;18.10;99.90;;;;;;4965638;28;20074;-64
2023/09/17 08:58:34;;;;;;;0.28;0.28;;;18.10;99.90;;;;;;4974743;28;20047;-64
2023/09/17 09:01:03;;;;;;;0.08;0.08;;;18.10;99.90;;;;;;4958277;28;20042;-64
2023/09/17 09:03:33;;;;;;;0.20;0.20;;;18.10;99.90;;;;;;4975175;28;20051;-64
2023/09/17 09:06:00;;;;;;;0.00;0.00;;;18.00;99.90;;;;;;4972664;28;20045;-64
2023/09/17 09:08:27;;;;;;;0.68;0.68;;;18.00;99.90;;;;;;4975147;28;20053;-64
2023/09/17 09:10:53;;;;;;;0.47;0.45;;;18.00;99.90;;;;;;4955817;28;20101;-64
2023/09/17 09:13:20;;;;;;;0.03;0.03;;;18.00;99.90;;;;;;4974167;28;20090;-64
2023/09/17 09:15:47;;;;;;;0.28;0.28;;;18.00;99.90;;;;;;4973260;28;20117;-64
2023/09/17 09:18:13;;;;;;;0.20;0.20;;;18.00;99.90;;;;;;4973616;28;20117;-64
2023/09/17 09:20:40;;;;;;;0.68;0.45;;;18.00;99.90;;;;;;4973697;28;20189;-64
2023/09/17 09:23:06;;;;;;;0.40;0.40;;;18.00;99.90;;;;;;4974405;28;20096;-64
2023/09/17 09:25:33;;;;;;;2.10;0.50;;;18.00;99.90;;;;;;4974675;28;20046;-63
2023/09/17 09:28:00;;;;;;;0.10;0.10;;;18.00;99.90;;;;;;4972103;28;20046;-63
2023/09/17 09:30:27;;;;;;;0.75;0.75;;;18.00;99.90;;;;;;4974497;28;20073;-64
2023/09/17 09:32:52;;;;;;;0.20;0.20;;;18.00;99.90;;;;;;4973848;28;20054;-63
2023/09/17 09:35:19;;;;;;;0.68;0.47;;;18.00;99.90;;;;;;4972841;28;20042;-64
2023/09/17 09:37:45;;;;;;;0.32;0.32;;;18.00;99.90;;;;;;4974116;28;20037;-64
2023/09/17 09:40:13;;;;;;;0.30;0.30;;;18.00;99.90;;;;;;4973853;28;20050;-64
2023/09/17 09:42:39;;;;;;;0.73;0.68;;;18.00;99.90;;;;;;4974518;28;20053;-65
2023/09/17 09:45:05;;;;;;;0.10;0.10;;;17.90;99.90;;;;;;4972604;28;20030;-65
2023/09/17 09:47:31;;;;;;;2.13;0.85;;;17.90;99.90;;;;;;4972952;28;20517;-65
2023/09/17 09:49:57;;;;;;;0.10;0.10;;;17.90;99.90;;;;;;4956261;28;20137;-65
2023/09/17 09:52:24;;;;;;;0.20;0.17;;;17.90;99.90;;;;;;4973566;28;20094;-64
2023/09/17 09:54:49;;;;;;;0.73;0.43;;;17.90;99.90;;;;;;4972348;28;20058;-65
2023/09/17 09:57:18;;;;;;;0.03;0.03;;;17.80;99.90;;;;;;4974335;28;20038;-64
2023/09/17 09:59:46;;;;;;;0.38;0.38;;;17.80;99.90;;;;;;4972142;28;20043;-64
2023/09/17 10:02:15;;;;;;;0.00;0.00;;;17.70;99.90;;;;;;4969038;28;20047;-64
2023/09/17 10:04:41;;;;;;;0.00;0.00;;;17.70;99.90;;;;;;4956453;28;20055;-64
2023/09/17 10:07:08;;;;;;;0.00;0.00;;;17.70;99.90;;;;;;4972025;28;20051;-64
2023/09/17 10:09:34;;;;;;;0.10;0.10;;;17.70;99.90;;;;;;4971220;28;20035;-64
2023/09/17 10:12:00;;;;;;;0.22;0.22;;;17.70;99.90;;;;;;4973669;28;20390;-64
2023/09/17 10:14:26;;;;;;;0.00;0.00;;;17.70;99.90;;;;;;4972150;28;20038;-64
2023/09/17 10:16:54;;;;;;;0.32;0.32;;;17.70;99.90;;;;;;4955841;28;20043;-64
2023/09/17 10:19:22;;;;;;;0.30;0.30;;;17.60;99.90;;;;;;4965867;28;20130;-65
2023/09/17 10:21:48;;;;;;;3.50;1.55;;;17.60;99.90;;;;;;4972063;28;20438;-65
2023/09/17 10:24:17;;;;;;;1.02;0.75;;;17.70;99.90;;;;;;4955157;28;20406;-64
2023/09/17 10:26:45;;;;;;;0.22;0.22;;;17.70;99.90;;;;;;4971976;28;20042;-65
2023/09/17 10:29:12;;;;;;;0.08;0.08;;;17.70;99.90;;;;;;4970559;28;20748;-64
2023/09/17 10:31:40;;;;;;;1.75;0.57;;;17.80;99.90;;;;;;4972465;28;20046;-64
2023/09/17 10:34:08;;;;;;;0.25;0.25;;;17.80;99.90;;;;;;4973354;28;20046;-64
2023/09/17 10:36:36;;;;;;;0.15;0.15;;;17.80;99.90;;;;;;4972775;28;20122;-64
2023/09/17 10:39:03;;;;;;;0.00;0.00;;;17.90;99.90;;;;;;4971241;28;20513;-64
2023/09/17 10:41:32;;;;;;;0.20;0.20;;;17.90;99.90;;;;;;4955745;28;20371;-64
2023/09/17 10:43:59;;;;;;;1.02;0.52;;;17.80;99.90;;;;;;4955089;28;20061;-64
2023/09/17 10:46:28;;;;;;;0.10;0.10;;;17.90;99.90;;;;;;4971325;28;20063;-64
2023/09/17 10:48:56;;;;;;;0.85;0.70;;;17.80;99.90;;;;;;4972707;28;20058;-64
2023/09/17 10:51:22;;;;;;;0.32;0.32;;;17.90;99.90;;;;;;4970603;28;20039;-64
2023/09/17 10:53:47;;;;;;;0.03;0.03;;;17.80;99.90;;;;;;4972617;28;20060;-64
2023/09/17 10:56:14;;;;;;;0.00;0.00;;;17.80;99.90;;;;;;4973199;28;20141;-64
2023/09/17 10:58:44;;;;;;;0.10;0.10;;;17.80;99.90;;;;;;4970084;28;20086;-64
2023/09/17 11:01:15;;;;;;;0.13;0.13;;;17.70;99.90;;;;;;4971217;28;20105;-64
2023/09/17 11:03:46;;;;;;;0.08;0.08;;;17.80;99.90;;;;;;4970002;28;20491;-64
2023/09/17 11:06:23;;;;;;;0.35;0.15;;;17.80;99.90;;;;;;4968468;28;20045;-64
2023/09/17 11:08:51;;;;;;;0.47;0.47;;;17.80;99.90;;;;;;4971109;28;20034;-64
2023/09/17 11:11:18;;;;;;;0.38;0.38;;;17.90;99.90;;;;;;4971829;28;20054;-64
2023/09/17 11:13:46;;;;;;;0.08;0.08;;;18.00;99.90;;;;;;4973112;28;20051;-64
2023/09/17 11:16:15;;;;;;;0.00;0.00;;;18.00;99.90;;;;;;4972732;28;20050;-65
2023/09/17 11:18:45;;;;;;;0.20;0.20;;;18.00;99.90;;;;;;4970394;28;20065;-65
2023/09/17 11:21:12;;;;;;;0.10;0.10;;;18.00;99.90;;;;;;4972505;28;20382;-64
2023/09/17 11:23:46;;;;;;;0.85;0.55;;;18.10;99.90;;;;;;4972709;28;20072;-65
2023/09/17 11:26:19;;;;;;;0.20;0.20;;;18.00;99.90;;;;;;4971615;28;20482;-64
2023/09/17 11:28:50;;;;;;;;;;;18.10;99.90;;;;;;4955034;28;20103;-64
2023/09/17 11:31:16;;;;;;;0.10;0.10;;;18.00;99.90;;;;;;4972528;28;19989;-64
2023/09/17 11:33:42;;;;;;;0.98;0.35;;;18.00;99.90;;;;;;4971918;28;20058;-64
2023/09/17 11:36:08;;;;;;;0.00;0.00;;;18.00;99.90;;;;;;4971031;28;20109;-64
2023/09/17 11:38:34;;;;;;;2.75;0.65;;;17.90;99.90;;;;;;4953911;28;20058;-64
2023/09/17 11:41:10;;;;;;;0.43;0.43;;;17.90;99.90;;;;;;4954518;28;20039;-64
2023/09/17 11:43:47;;;;;;;0.13;0.08;;;17.90;99.90;;;;;;4970857;28;20035;-64
2023/09/17 11:46:14;;;;;;;0.10;0.10;;;17.80;99.90;;;;;;4972432;28;20143;-65
2023/09/17 11:48:47;;;;;;;0.00;0.00;;;17.90;99.90;;;;;;4971852;28;20391;-65
2023/09/17 11:51:25;;;;;;;0.00;0.00;;;17.80;99.90;;;;;;4972426;28;20498;-64
2023/09/17 11:54:02;;;;;;;0.00;0.00;;;17.90;99.90;;;;;;4969789;28;20302;-64
2023/09/17 11:56:33;;;;;;;0.20;0.20;;;17.90;99.90;;;;;;4955024;28;20117;-64
2023/09/17 11:59:05;;;;;;;0.90;0.45;;;17.90;99.90;;;;;;4956410;28;20126;-64
2023/09/17 12:01:36;;;;;;;16.58;3.72;;;18.00;99.90;;;;;;4971620;28;20047;-64
2023/09/17 12:04:05;;;;;;;0.00;0.00;;;18.20;99.90;;;;;;4970872;28;20035;-65
2023/09/17 12:06:31;;;;;;;0.20;0.20;;;18.40;99.90;;;;;;4972446;28;20043;-64
2023/09/17 12:09:00;;;;;;;0.20;0.20;;;18.50;99.90;;;;;;4970088;28;20651;-64
2023/09/17 12:11:25;;;;;;;0.57;0.57;;;18.70;99.90;;;;;;4972068;28;20058;-64
2023/09/17 12:13:53;;;;;;;0.20;0.20;;;18.70;99.90;;;;;;4973791;28;20055;-64
2023/09/17 12:16:24;;;;;;;0.10;0.10;;;18.80;99.90;;;;;;4975249;28;20086;-64
2023/09/17 12:18:52;;;;;;;0.10;0.10;;;18.80;99.90;;;;;;4973702;28;20077;-64
2023/09/17 12:21:22;;;;;;;0.22;0.22;;;18.80;99.90;;;;;;4975681;28;20402;-65
2023/09/17 12:24:04;;;;;;;0.00;0.00;;;18.80;99.90;;;;;;4973395;28;20039;-65
2023/09/17 12:26:36;;;;;;;0.28;0.28;;;18.70;99.90;;;;;;4971046;28;20451;-64
2023/09/17 12:29:07;;;;;;;0.85;0.47;;;18.80;99.90;;;;;;4974917;28;20497;-65
2023/09/17 12:31:36;;;;;;;0.00;0.00;;;18.80;99.90;;;;;;4950611;28;20051;-64
2023/09/17 12:34:03;;;;;;;0.00;0.00;;;18.80;99.90;;;;;;4974002;28;20039;-64
2023/09/17 12:36:29;;;;;;;0.28;0.28;;;18.70;99.90;;;;;;4974701;28;20379;-64
2023/09/17 12:38:54;;;;;;;0.00;0.00;;;18.70;99.90;;;;;;4973760;28;20042;-64
2023/09/17 12:41:20;;;;;;;0.35;0.10;;;18.80;99.90;;;;;;4975290;28;20053;-64
2023/09/17 12:43:46;;;;;;;0.20;0.20;;;18.80;99.90;;;;;;4974860;28;20046;-64
2023/09/17 12:46:13;;;;;;;0.00;0.00;;;18.80;99.90;;;;;;4975205;28;20050;-65